createdAt,value
2023-08-01T00:04:17.506Z,99194.91
2023-08-01T00:09:19.125Z,99170.19
2023-08-01T00:14:21.450Z,99150.53
2023-08-01T00:19:23.120Z,99128.63
2023-08-01T00:24:24.726Z,99107.31
2023-08-01T00:29:28.691Z,99091.53
2023-08-01T00:34:30.293Z,99089.59
2023-08-01T00:39:32.149Z,99089.84
2023-08-01T00:44:33.940Z,99109.72
2023-08-01T00:49:35.885Z,99144.31
2023-08-01T00:54:38.056Z,99165.34
2023-08-01T00:59:39.768Z,99166.03
2023-08-01T01:04:41.502Z,99162.59
2023-08-01T01:09:43.122Z,99127.53
2023-08-01T01:14:44.741Z,99101.09
2023-08-01T01:19:46.399Z,99102.19
2023-08-01T01:24:49.691Z,99099.44
2023-08-01T01:29:51.949Z,99087.56
2023-08-01T01:34:53.583Z,99093.38
2023-08-01T01:39:55.238Z,99067.69
2023-08-01T01:44:56.895Z,99072.91
2023-08-01T01:49:58.498Z,99063.78
2023-08-01T01:55:00.624Z,99062.97
2023-08-01T02:00:03.489Z,99064.63
2023-08-01T02:05:14.576Z,99040.31
2023-08-01T02:10:16.180Z,99041.47
2023-08-01T02:15:17.992Z,99021.78
2023-08-01T02:20:25.033Z,99032.03
2023-08-01T02:25:27.809Z,99031.44
2023-08-01T02:30:30.386Z,99027.31
2023-08-01T02:35:32.220Z,99016.25
2023-08-01T02:40:33.917Z,99006.53
2023-08-01T02:45:35.553Z,99012.06
2023-08-01T02:50:37.113Z,99014.84
2023-08-01T02:55:39.632Z,99026.94
2023-08-01T03:00:41.632Z,99020.28
2023-08-01T03:05:43.627Z,99021.94
2023-08-01T03:10:46.163Z,99013.00
2023-08-01T03:15:47.853Z,98995.31
2023-08-01T03:20:49.533Z,99007.81
2023-08-01T03:25:51.244Z,98968.25
2023-08-01T03:30:54.558Z,98944.78
2023-08-01T03:35:56.171Z,98875.44
2023-08-01T03:40:57.872Z,98804.47
2023-08-01T03:45:59.459Z,98893.88
2023-08-01T03:51:01.615Z,98903.59
2023-08-01T03:56:03.374Z,98902.78
2023-08-01T04:01:05.037Z,98890.91
2023-08-01T04:06:06.668Z,98891.72
2023-08-01T04:11:08.227Z,98901.34
2023-08-01T04:16:09.901Z,98910.66
2023-08-01T04:21:14.492Z,98947.03
2023-08-01T04:26:16.532Z,98965.47
2023-08-01T04:31:18.105Z,98951.56
2023-08-01T04:36:19.765Z,98947.66
2023-08-01T04:41:21.342Z,98958.63
2023-08-01T04:46:23.035Z,98975.97
2023-08-01T04:51:24.642Z,98976.56
2023-08-01T04:56:26.214Z,98955.13
2023-08-01T05:01:27.777Z,98933.56
2023-08-01T05:06:29.373Z,98898.22
2023-08-01T05:11:30.962Z,98901.56
2023-08-01T05:16:32.897Z,98898.06
2023-08-01T05:21:34.583Z,98891.78
2023-08-01T05:26:37.878Z,98899.66
2023-08-01T05:31:41.678Z,98911.97
2023-08-01T05:36:43.736Z,98908.03
2023-08-01T05:41:45.638Z,98918.81
2023-08-01T05:46:47.274Z,98926.63
2023-08-01T05:51:48.854Z,98956.47
2023-08-01T05:56:50.520Z,98978.31
2023-08-01T06:01:52.173Z,98985.88
2023-08-01T06:06:53.766Z,98979.41
2023-08-01T06:11:55.360Z,98959.69
2023-08-01T06:16:56.982Z,98952.09
2023-08-01T06:21:58.648Z,98945.53
2023-08-01T06:27:00.458Z,98931.72
2023-08-01T06:32:02.061Z,98938.59
2023-08-01T06:37:05.135Z,98940.44
2023-08-01T06:42:07.176Z,98947.59
2023-08-01T06:47:08.981Z,98941.41
2023-08-01T06:52:10.816Z,98943.47
2023-08-01T06:57:12.634Z,98939.47
2023-08-01T07:02:14.230Z,98938.84
2023-08-01T07:07:15.879Z,98952.00
2023-08-01T07:12:17.434Z,98958.94
2023-08-01T07:17:19.000Z,98951.88
2023-08-01T07:22:20.695Z,98960.84
2023-08-01T07:27:22.662Z,98956.56
2023-08-01T07:32:24.410Z,98967.81
2023-08-01T07:37:30.430Z,98968.94
2023-08-01T07:42:32.017Z,98971.28
2023-08-01T07:47:33.683Z,98968.53
2023-08-01T07:52:35.295Z,98975.28
2023-08-01T07:57:36.825Z,98970.47
2023-08-01T08:02:38.443Z,98973.03
2023-08-01T08:07:40.234Z,98969.75
2023-08-01T08:12:41.905Z,98973.47
2023-08-01T08:17:43.819Z,98971.34
2023-08-01T08:22:45.478Z,98971.34
2023-08-01T08:27:47.096Z,98986.13
2023-08-01T08:32:48.741Z,98997.75
2023-08-01T08:37:50.325Z,98992.78
2023-08-01T08:42:53.809Z,99026.44
2023-08-01T08:48:01.832Z,99024.19
2023-08-01T08:53:03.918Z,99050.44
2023-08-01T08:58:05.942Z,99049.03
2023-08-01T09:03:07.621Z,99064.53
2023-08-01T09:08:17.471Z,99057.53
2023-08-01T09:13:19.354Z,99068.72
2023-08-01T09:18:21.099Z,99061.13
2023-08-01T09:23:25.973Z,99065.13
2023-08-01T09:28:28.430Z,99067.47
2023-08-01T09:33:42.355Z,99087.88
2023-08-01T09:38:45.089Z,99093.06
2023-08-01T09:43:48.217Z,99120.88
2023-08-01T09:48:50.057Z,99124.41
2023-08-01T09:53:56.759Z,99112.78
2023-08-01T09:59:01.192Z,99104.28
2023-08-01T10:04:08.521Z,99103.31
2023-08-01T10:09:12.109Z,99094.63
2023-08-01T10:14:14.663Z,99096.59
2023-08-01T10:19:20.896Z,99115.06
2023-08-01T10:24:25.745Z,99106.38
2023-08-01T10:29:37.442Z,99098.66
2023-08-01T10:34:39.039Z,99101.16
2023-08-01T10:39:40.669Z,99088.03
2023-08-01T10:44:48.736Z,99083.84
2023-08-01T10:49:50.497Z,99079.44
2023-08-01T10:55:08.712Z,99075.59
2023-08-01T11:00:11.139Z,99085.97
2023-08-01T11:05:12.915Z,99090.16
2023-08-01T11:10:15.147Z,99081.06
2023-08-01T11:15:16.711Z,99080.53
2023-08-01T11:20:20.543Z,99085.53
2023-08-01T11:25:40.247Z,99079.97
2023-08-01T11:30:42.537Z,99070.22
2023-08-01T11:35:44.503Z,99075.50
2023-08-01T11:40:47.778Z,99085.50
2023-08-01T11:45:55.390Z,99088.69
2023-08-01T11:51:00.664Z,99077.72
2023-08-01T11:56:02.335Z,99082.25
2023-08-01T12:01:12.230Z,99077.00
2023-08-01T12:06:17.248Z,99075.56
2023-08-01T12:11:23.261Z,99073.47
2023-08-01T12:16:25.245Z,99073.69
2023-08-01T12:21:27.499Z,99061.50
2023-08-01T12:26:29.408Z,99070.31
2023-08-01T12:31:31.100Z,99070.00
2023-08-01T12:36:32.764Z,99067.38
2023-08-01T12:41:35.529Z,99066.28
2023-08-01T12:46:37.263Z,99074.31
2023-08-01T12:51:39.086Z,99075.50
2023-08-01T12:56:40.900Z,99063.72
2023-08-01T13:01:42.718Z,99055.59
2023-08-01T13:06:45.701Z,99044.69
2023-08-01T13:11:47.354Z,99051.47
2023-08-01T13:16:49.034Z,99055.47
2023-08-01T13:21:50.695Z,99059.00
2023-08-01T13:26:55.488Z,99051.41
2023-08-01T13:32:01.420Z,99060.69
2023-08-01T13:37:07.460Z,99062.63
2023-08-01T13:42:09.029Z,99061.28
2023-08-01T13:47:12.178Z,99044.31
2023-08-01T13:52:14.007Z,99048.53
2023-08-01T13:57:15.852Z,99055.22
2023-08-01T14:02:17.464Z,99070.94
2023-08-01T14:07:19.111Z,99067.16
2023-08-01T14:12:20.691Z,99066.31
2023-08-01T14:17:22.350Z,99058.44
2023-08-01T14:22:24.149Z,99071.19
2023-08-01T14:27:25.784Z,99070.75
2023-08-01T14:32:27.373Z,99074.91
2023-08-01T14:37:30.446Z,99066.88
2023-08-01T14:42:32.652Z,99075.97
2023-08-01T14:47:35.592Z,99072.69
2023-08-01T14:52:37.285Z,99069.38
2023-08-01T14:57:39.105Z,99071.03
2023-08-01T15:02:40.710Z,99066.19
2023-08-01T15:07:42.607Z,99076.19
2023-08-01T15:12:44.375Z,99080.84
2023-08-01T15:17:46.017Z,99074.78
2023-08-01T15:22:47.570Z,99102.50
2023-08-01T15:27:49.114Z,99102.91
2023-08-01T15:32:50.708Z,99103.25
2023-08-01T15:37:52.309Z,99092.91
2023-08-01T15:42:53.958Z,99099.66
2023-08-01T15:47:55.669Z,99110.91
2023-08-01T15:52:57.259Z,99097.63
2023-08-01T15:57:58.816Z,99102.69
2023-08-01T16:03:00.494Z,99095.31
2023-08-01T16:08:07.593Z,99093.03
2023-08-01T16:13:09.954Z,99102.16
2023-08-01T16:18:11.577Z,99110.84
2023-08-01T16:23:13.488Z,99111.38
2023-08-01T16:28:15.049Z,99115.75
2023-08-01T16:33:18.487Z,99115.59
2023-08-01T16:38:20.301Z,99125.03
2023-08-01T16:43:21.932Z,99131.56
2023-08-01T16:48:23.552Z,99139.84
2023-08-01T16:53:25.171Z,99146.53
2023-08-01T16:58:26.711Z,99140.81
2023-08-01T17:03:28.355Z,99154.66
2023-08-01T17:08:30.554Z,99156.00
2023-08-01T17:13:32.142Z,99151.69
2023-08-01T17:18:33.696Z,99169.94
2023-08-01T17:23:35.273Z,99171.63
2023-08-01T17:28:36.975Z,99180.03
2023-08-01T17:33:38.559Z,99189.69
2023-08-01T17:38:40.709Z,99186.56
2023-08-01T17:43:42.266Z,99192.81
2023-08-01T17:48:43.884Z,99195.31
2023-08-01T17:53:46.524Z,99198.59
2023-08-01T17:58:48.086Z,99202.72
2023-08-01T18:03:49.654Z,99216.63
2023-08-01T18:08:51.438Z,99209.75
2023-08-01T18:13:53.037Z,99217.63
2023-08-01T18:18:55.466Z,99225.63
2023-08-01T18:23:57.021Z,99240.91
2023-08-01T18:28:58.580Z,99253.31
2023-08-01T18:34:00.173Z,99261.16
2023-08-01T18:39:01.945Z,99258.94
2023-08-01T18:44:03.542Z,99267.41
2023-08-01T18:49:05.110Z,99268.41
2023-08-01T18:54:07.292Z,99285.44
2023-08-01T18:59:08.880Z,99289.41
2023-08-01T19:04:10.584Z,99301.91
2023-08-01T19:09:20.903Z,99307.41
2023-08-01T19:14:23.378Z,99306.81
2023-08-01T19:19:24.947Z,99315.06
2023-08-01T19:24:26.636Z,99310.56
2023-08-01T19:29:28.226Z,99318.94
2023-08-01T19:34:29.907Z,99320.69
2023-08-01T19:39:32.135Z,99343.03
2023-08-01T19:44:34.406Z,99353.25
2023-08-01T19:49:36.075Z,99350.75
2023-08-01T19:54:37.681Z,99352.03
2023-08-01T19:59:39.225Z,99351.22
2023-08-01T20:04:40.913Z,99352.97
2023-08-01T20:09:42.862Z,99357.25
2023-08-01T20:14:44.409Z,99358.25
2023-08-01T20:19:46.651Z,99365.97
2023-08-01T20:24:48.915Z,99368.19
2023-08-01T20:29:52.325Z,99369.75
2023-08-01T20:34:54.056Z,99374.38
2023-08-01T20:39:55.590Z,99387.81
2023-08-01T20:44:57.554Z,99395.66
2023-08-01T20:49:59.460Z,99389.13
2023-08-01T20:55:01.082Z,99388.66
2023-08-01T21:00:03.608Z,99390.09
2023-08-01T21:05:05.520Z,99381.03
2023-08-01T21:10:08.422Z,99383.28
2023-08-01T21:15:10.308Z,99389.69
2023-08-01T21:20:13.529Z,99383.66
2023-08-01T21:25:15.354Z,99385.34
2023-08-01T21:30:18.090Z,99379.56
2023-08-01T21:35:19.674Z,99374.44
2023-08-01T21:40:21.292Z,99380.00
2023-08-01T21:45:25.275Z,99396.56
2023-08-01T21:50:27.148Z,99386.06
2023-08-01T21:55:28.743Z,99392.19
2023-08-01T22:00:30.382Z,99390.50
2023-08-01T22:05:31.929Z,99381.38
2023-08-01T22:10:36.763Z,99376.72
2023-08-01T22:15:38.329Z,99373.41
2023-08-01T22:20:40.007Z,99376.22
2023-08-01T22:25:41.424Z,99378.97
2023-08-01T22:30:46.720Z,99377.88
2023-08-01T22:35:51.495Z,99392.47
2023-08-01T22:40:53.077Z,99398.84
2023-08-01T22:45:57.656Z,99385.88
2023-08-01T22:50:59.280Z,99402.72
2023-08-01T22:56:01.017Z,99392.25
2023-08-01T23:01:02.616Z,99396.41
2023-08-01T23:06:04.880Z,99383.69
2023-08-01T23:11:06.563Z,99380.09
2023-08-01T23:16:08.189Z,99383.66
2023-08-01T23:21:09.818Z,99378.44
2023-08-01T23:26:13.826Z,99385.03
2023-08-01T23:31:16.891Z,99363.47
2023-08-01T23:36:18.563Z,99363.94
2023-08-01T23:41:20.159Z,99355.97
2023-08-01T23:46:23.269Z,99353.22
2023-08-01T23:51:25.148Z,99362.09
2023-08-01T23:56:26.832Z,99356.06
